Time;durP1;ratioP1;P1;durP2;ratioP2;P2;SDS_P1;SDS_P2;PMS_P1;PMS_P2;Temp;Humidity;BMP_temperature;BMP_pressure;BME280_temperature;BME280_humidity;BME280_pressure;Samples;Min_cycle;Max_cycle;Signal;HPM_P1;HPM_P2
2021/12/17 00:05:17;;;;;;;18.60;12.97;;;;;;;;;;4963441;28;20192;-83
2021/12/17 00:07:44;;;;;;;17.00;12.63;;;;;;;;;;4988409;28;20231;-83
2021/12/17 00:10:12;;;;;;;15.57;11.40;;;;;;;;;;5012270;28;20198;-84
2021/12/17 00:12:41;;;;;;;15.50;12.20;;;;;;;;;;5006135;28;20750;-84
2021/12/17 00:15:09;;;;;;;15.37;12.10;;;;;;;;;;5004707;28;20238;-84
2021/12/17 00:17:46;;;;;;;14.77;11.30;;;;;;;;;;5006396;28;20224;-84
2021/12/17 00:20:51;;;;;;;16.50;12.97;;;;;;;;;;5002653;28;20267;-83
2021/12/17 00:48:35;;;;;;;16.43;12.40;;;;;;;;;;4990107;28;20246;-84
2021/12/17 00:51:33;;;;;;;14.80;11.80;;;;;;;;;;5002960;28;20206;-84
2021/12/17 00:53:59;;;;;;;14.77;11.17;;;;;;;;;;5005953;28;20210;-85
2021/12/17 00:56:26;;;;;;;16.60;11.73;;;;;;;;;;5006221;28;20293;-84
2021/12/17 00:58:53;;;;;;;15.03;12.27;;;;;;;;;;5006094;28;20223;-84
2021/12/17 01:01:22;;;;;;;14.33;11.20;;;;;;;;;;5003231;28;20291;-84
2021/12/17 01:03:50;;;;;;;15.60;11.53;;;;;;;;;;5004314;28;20230;-83
2021/12/17 01:06:17;;;;;;;15.03;12.50;;;;;;;;;;5009724;28;20211;-84
2021/12/17 01:08:44;;;;;;;15.57;11.67;;;;;;;;;;5016556;28;20238;-83
2021/12/17 01:11:12;;;;;;;16.27;12.60;;;;;;;;;;5011222;28;20278;-84
2021/12/17 01:13:41;;;;;;;15.43;12.60;;;;;;;;;;5014056;28;20271;-84
2021/12/17 01:16:08;;;;;;;16.27;12.53;;;;;;;;;;5009536;28;20214;-84
2021/12/17 01:18:48;;;;;;;15.83;12.07;;;;;;;;;;5015524;28;20242;-83
2021/12/17 01:24:15;;;;;;;15.90;12.33;;;;;;;;;;5000960;28;20200;-84
2021/12/17 01:43:27;;;;;;;16.07;13.20;;;;;;;;;;4995104;28;20248;-85
2021/12/17 01:45:54;;;;;;;15.53;12.70;;;;;;;;;;4998172;28;20595;-85
2021/12/17 01:48:27;;;;;;;16.60;12.97;;;;;;;;;;5009106;28;20313;-84
2021/12/17 04:19:44;;;;;;;16.37;13.67;;;;;;;;;;4906479;29;20201;-87
2021/12/17 07:38:53;;;;;;;11.50;10.30;;;;;;;;;;4854618;28;20229;-86
2021/12/17 07:44:55;;;;;;;11.30;10.03;;;;;;;;;;4994290;28;20219;-86
2021/12/17 07:47:52;;;;;;;;;;;;;;;;;;;;;
2021/12/17 07:53:19;;;;;;;11.27;10.07;;;;;;;;;;5011194;22;20245;-84
2021/12/17 07:55:46;;;;;;;12.10;10.13;;;;;;;;;;4978693;28;20232;-80
2021/12/17 07:58:14;;;;;;;14.97;11.13;;;;;;;;;;4975805;28;20201;-81
2021/12/17 08:00:41;;;;;;;11.90;9.73;;;;;;;;;;4974304;28;20266;-83
2021/12/17 08:03:08;;;;;;;11.70;9.53;;;;;;;;;;4978377;28;20242;-80
2021/12/17 08:05:35;;;;;;;12.73;10.50;;;;;;;;;;4982788;28;20204;-85
2021/12/17 08:08:03;;;;;;;11.33;9.60;;;;;;;;;;4977986;28;20219;-90
2021/12/17 08:10:32;;;;;;;11.20;9.43;;;;;;;;;;4974745;28;20251;-89
2021/12/17 08:13:06;;;;;;;9.90;8.70;;;;;;;;;;4976959;28;20218;-91
2021/12/17 08:15:44;;;;;;;11.37;9.27;;;;;;;;;;4970354;28;20223;-91
2021/12/17 08:26:41;;;;;;;10.80;8.83;;;;;;;;;;4977523;28;20203;-91
2021/12/17 08:29:26;;;;;;;10.93;8.80;;;;;;;;;;4975587;28;20211;-92
2021/12/17 08:31:54;;;;;;;11.37;9.90;;;;;;;;;;4976575;28;20204;-89
2021/12/17 08:34:21;;;;;;;12.13;10.00;;;;;;;;;;4979738;28;20305;-91
2021/12/17 08:36:48;;;;;;;13.57;9.00;;;;;;;;;;4994765;28;20218;-90
2021/12/17 08:39:16;;;;;;;10.63;9.00;;;;;;;;;;4979537;28;20208;-88
2021/12/17 08:41:49;;;;;;;12.03;9.67;;;;;;;;;;4977699;28;20216;-89
2021/12/17 08:44:17;;;;;;;10.80;9.33;;;;;;;;;;4977397;28;20223;-89
2021/12/17 08:46:44;;;;;;;10.07;9.07;;;;;;;;;;4976709;28;20238;-90
2021/12/17 08:49:11;;;;;;;9.77;8.63;;;;;;;;;;4978998;28;20203;-89
2021/12/17 08:51:39;;;;;;;11.80;9.13;;;;;;;;;;4980597;28;20200;-90
2021/12/17 08:54:06;;;;;;;11.73;9.00;;;;;;;;;;4981276;28;20252;-90
2021/12/17 08:56:34;;;;;;;11.73;9.17;;;;;;;;;;4985161;28;20687;-90
2021/12/17 08:59:04;;;;;;;8.97;8.03;;;;;;;;;;4988038;28;20211;-90
2021/12/17 09:01:32;;;;;;;10.50;8.97;;;;;;;;;;4976385;28;20712;-89
2021/12/17 09:03:59;;;;;;;11.80;8.43;;;;;;;;;;4985782;28;20223;-90
2021/12/17 09:06:28;;;;;;;10.73;8.70;;;;;;;;;;4976250;28;20231;-90
2021/12/17 09:08:56;;;;;;;9.17;7.70;;;;;;;;;;4977817;28;20209;-90
2021/12/17 09:11:23;;;;;;;10.03;8.40;;;;;;;;;;4989989;28;20299;-90
2021/12/17 09:13:51;;;;;;;8.97;7.97;;;;;;;;;;4979654;28;20256;-88
2021/12/17 09:16:21;;;;;;;8.50;7.57;;;;;;;;;;4979908;28;20203;-90
2021/12/17 09:18:49;;;;;;;9.60;7.83;;;;;;;;;;4982830;28;20204;-91
2021/12/17 09:21:17;;;;;;;9.87;8.47;;;;;;;;;;4978732;28;20280;-89
2021/12/17 09:23:44;;;;;;;9.07;7.90;;;;;;;;;;4979432;28;20219;-90
2021/12/17 09:26:12;;;;;;;8.63;7.60;;;;;;;;;;4979732;28;20208;-89
2021/12/17 09:28:39;;;;;;;9.43;7.83;;;;;;;;;;4980324;28;20231;-90
2021/12/17 09:31:11;;;;;;;12.63;7.40;;;;;;;;;;4982006;28;20211;-90
2021/12/17 09:33:41;;;;;;;10.10;7.57;;;;;;;;;;4986804;28;20220;-90
2021/12/17 09:36:12;;;;;;;8.57;7.13;;;;;;;;;;4991542;28;20204;-91
2021/12/17 09:38:40;;;;;;;11.20;8.63;;;;;;;;;;4978727;28;20263;-90
2021/12/17 09:41:07;;;;;;;9.97;7.20;;;;;;;;;;4982204;28;20215;-90
2021/12/17 09:43:36;;;;;;;9.67;7.73;;;;;;;;;;4988349;28;20234;-91
2021/12/17 09:46:11;;;;;;;7.80;6.87;;;;;;;;;;4977797;28;20208;-91
2021/12/17 09:48:40;;;;;;;8.23;7.27;;;;;;;;;;4974239;28;20214;-91
2021/12/17 09:51:09;;;;;;;8.67;7.00;;;;;;;;;;4976695;28;20266;-90
2021/12/17 09:53:37;;;;;;;15.90;12.20;;;;;;;;;;4975894;28;20227;-90
2021/12/17 09:56:05;;;;;;;7.70;6.97;;;;;;;;;;4978513;28;20290;-90
2021/12/17 09:58:32;;;;;;;12.90;7.33;;;;;;;;;;4987227;28;20196;-92
2021/12/17 10:01:00;;;;;;;9.47;6.63;;;;;;;;;;4998015;28;20231;-92
2021/12/17 10:03:29;;;;;;;7.27;6.57;;;;;;;;;;5002636;28;20231;-92
2021/12/17 10:05:58;;;;;;;8.07;6.73;;;;;;;;;;4995472;28;20227;-92
2021/12/17 10:08:26;;;;;;;7.13;6.43;;;;;;;;;;4998430;28;20203;-92
2021/12/17 10:10:58;;;;;;;7.40;6.70;;;;;;;;;;4999844;28;20203;-90
2021/12/17 10:13:29;;;;;;;8.00;7.03;;;;;;;;;;5001532;28;20220;-91
2021/12/17 10:15:58;;;;;;;7.90;7.10;;;;;;;;;;4983698;28;20189;-92
2021/12/17 10:18:33;;;;;;;7.47;6.70;;;;;;;;;;5001540;28;20239;-92
2021/12/17 10:21:03;;;;;;;7.80;7.00;;;;;;;;;;5000680;28;20201;-92
2021/12/17 10:23:31;;;;;;;7.20;6.43;;;;;;;;;;4999137;28;20222;-91
2021/12/17 10:25:59;;;;;;;7.73;6.83;;;;;;;;;;5000435;28;20211;-91
2021/12/17 10:28:31;;;;;;;9.33;6.83;;;;;;;;;;4987494;28;20203;-89
2021/12/17 10:31:00;;;;;;;8.20;6.40;;;;;;;;;;4983324;28;20212;-91
2021/12/17 10:33:29;;;;;;;8.37;7.57;;;;;;;;;;4984407;28;20227;-91
2021/12/17 10:36:00;;;;;;;8.47;7.60;;;;;;;;;;4986032;28;20207;-91
2021/12/17 10:38:29;;;;;;;8.17;7.37;;;;;;;;;;4997063;28;20287;-92
2021/12/17 10:41:02;;;;;;;8.80;7.40;;;;;;;;;;4983987;28;20258;-90
2021/12/17 10:43:34;;;;;;;10.27;8.10;;;;;;;;;;4986215;28;20227;-91
2021/12/17 10:46:21;;;;;;;8.40;7.57;;;;;;;;;;4984918;28;20210;-91
2021/12/17 10:48:53;;;;;;;9.67;8.03;;;;;;;;;;4987853;28;20204;-92
2021/12/17 10:51:56;;;;;;;8.63;7.73;;;;;;;;;;4987958;28;20239;-90
2021/12/17 10:54:33;;;;;;;9.60;8.60;;;;;;;;;;4992646;28;20334;-91
2021/12/17 10:57:13;;;;;;;8.57;7.67;;;;;;;;;;4990272;28;20207;-92
2021/12/17 10:59:47;;;;;;;8.87;7.97;;;;;;;;;;4987255;28;20223;-91
2021/12/17 11:02:15;;;;;;;11.23;7.90;;;;;;;;;;4988036;28;20231;-91
2021/12/17 11:04:51;;;;;;;8.47;7.63;;;;;;;;;;4992982;28;20224;-91
2021/12/17 11:07:24;;;;;;;8.93;7.93;;;;;;;;;;4996578;28;20210;-90
2021/12/17 11:10:11;;;;;;;8.77;7.83;;;;;;;;;;4989386;28;20204;-89
2021/12/17 11:12:39;;;;;;;10.53;8.53;;;;;;;;;;4987328;28;20196;-90
2021/12/17 11:15:24;;;;;;;13.03;9.27;;;;;;;;;;4979778;28;20228;-92
2021/12/17 11:17:52;;;;;;;9.97;8.60;;;;;;;;;;4980863;28;20202;-91
2021/12/17 11:23:49;;;;;;;11.43;9.23;;;;;;;;;;4979098;28;20230;-91
2021/12/17 11:26:18;;;;;;;9.03;7.80;;;;;;;;;;5004139;28;20290;-92
2021/12/17 11:28:46;;;;;;;9.17;8.30;;;;;;;;;;4984109;28;20214;-90
2021/12/17 11:31:19;;;;;;;10.30;9.30;;;;;;;;;;4981366;28;20214;-91
2021/12/17 11:49:23;;;;;;;9.13;8.00;;;;;;;;;;4976821;28;20207;-89
2021/12/17 11:51:54;;;;;;;9.17;8.23;;;;;;;;;;4977730;28;20206;-90
2021/12/17 11:54:26;;;;;;;8.93;7.83;;;;;;;;;;4983815;28;20231;-90
2021/12/17 11:56:54;;;;;;;8.77;7.87;;;;;;;;;;4980843;28;20239;-89
2021/12/17 11:59:42;;;;;;;9.30;8.30;;;;;;;;;;4970961;28;20193;-88
2021/12/17 12:02:15;;;;;;;8.20;7.40;;;;;;;;;;4970734;28;20215;-91
2021/12/17 12:04:48;;;;;;;9.13;8.23;;;;;;;;;;4990028;28;20468;-91
2021/12/17 12:10:02;;;;;;;8.23;7.43;;;;;;;;;;4980299;28;20200;-90
2021/12/17 12:12:32;;;;;;;10.83;8.43;;;;;;;;;;4977428;28;20232;-92
2021/12/17 12:15:14;;;;;;;8.27;7.43;;;;;;;;;;4978131;28;20254;-91
2021/12/17 12:18:03;;;;;;;8.33;7.03;;;;;;;;;;4952772;28;20207;-92
2021/12/17 12:20:56;;;;;;;8.70;7.80;;;;;;;;;;4978475;28;20216;-93
2021/12/17 12:23:25;;;;;;;8.53;7.63;;;;;;;;;;4986271;28;20242;-92
2021/12/17 12:26:12;;;;;;;9.00;7.67;;;;;;;;;;4982187;28;20192;-92
2021/12/17 12:28:49;;;;;;;8.63;7.73;;;;;;;;;;4988892;28;20294;-92
2021/12/17 12:34:20;;;;;;;8.47;7.53;;;;;;;;;;4981398;28;20223;-92
2021/12/17 12:36:54;;;;;;;9.20;7.80;;;;;;;;;;4977366;28;20212;-91
2021/12/17 12:39:23;;;;;;;9.27;7.80;;;;;;;;;;4979241;28;20207;-91
2021/12/17 12:41:57;;;;;;;8.93;7.50;;;;;;;;;;4978216;28;20204;-90
2021/12/17 12:44:39;;;;;;;9.13;7.63;;;;;;;;;;4975740;28;20282;-91
2021/12/17 12:47:07;;;;;;;9.00;7.73;;;;;;;;;;4971061;28;20299;-90
2021/12/17 12:49:45;;;;;;;8.60;7.70;;;;;;;;;;4993694;28;20699;-91
2021/12/17 12:52:17;;;;;;;9.07;7.83;;;;;;;;;;4996586;28;20230;-91
2021/12/17 12:54:49;;;;;;;10.33;8.40;;;;;;;;;;4992643;28;20231;-90
2021/12/17 12:57:24;;;;;;;8.27;7.47;;;;;;;;;;4977186;28;20200;-91
2021/12/17 12:59:53;;;;;;;8.13;7.30;;;;;;;;;;4980547;28;20202;-91
2021/12/17 13:02:20;;;;;;;8.20;7.33;;;;;;;;;;4979776;28;20247;-92
2021/12/17 13:04:48;;;;;;;9.17;7.90;;;;;;;;;;4981182;28;20228;-92
2021/12/17 13:07:17;;;;;;;8.93;7.17;;;;;;;;;;4979641;28;20271;-92
2021/12/17 13:09:46;;;;;;;8.27;7.30;;;;;;;;;;4978998;28;20236;-91
2021/12/17 13:12:13;;;;;;;9.80;8.07;;;;;;;;;;4979175;28;20228;-92
2021/12/17 13:14:46;;;;;;;11.10;8.60;;;;;;;;;;4977845;28;20216;-90
2021/12/17 13:17:41;;;;;;;9.17;8.20;;;;;;;;;;4980056;28;20218;-90
2021/12/17 13:20:41;;;;;;;8.63;7.70;;;;;;;;;;4979257;28;20279;-92
2021/12/17 13:23:18;;;;;;;10.40;7.60;;;;;;;;;;4980579;28;20222;-91
2021/12/17 13:25:46;;;;;;;8.70;7.23;;;;;;;;;;4981596;28;20207;-92
2021/12/17 13:28:14;;;;;;;8.73;7.37;;;;;;;;;;4980277;28;20231;-91
2021/12/17 13:30:41;;;;;;;8.27;7.40;;;;;;;;;;4978683;28;20200;-91
2021/12/17 13:33:09;;;;;;;7.77;6.93;;;;;;;;;;4978112;28;20224;-90
2021/12/17 13:35:38;;;;;;;10.67;9.60;;;;;;;;;;4980712;28;20230;-91
2021/12/17 13:38:06;;;;;;;11.27;10.07;;;;;;;;;;4978855;28;20211;-92
2021/12/17 13:40:36;;;;;;;12.83;10.57;;;;;;;;;;4978690;28;20207;-91
2021/12/17 13:43:04;;;;;;;11.33;10.13;;;;;;;;;;4978517;28;20283;-92
2021/12/17 13:45:31;;;;;;;10.40;9.27;;;;;;;;;;4980539;28;20215;-91
2021/12/17 13:47:59;;;;;;;10.53;9.33;;;;;;;;;;4976719;28;20247;-91
2021/12/17 13:50:28;;;;;;;10.37;9.30;;;;;;;;;;4973899;28;20262;-88
2021/12/17 13:52:58;;;;;;;10.07;9.07;;;;;;;;;;4976667;28;20549;-85
2021/12/17 13:55:27;;;;;;;10.73;9.23;;;;;;;;;;5069403;23;20230;-91
2021/12/17 13:57:57;;;;;;;10.23;9.23;;;;;;;;;;5320256;23;20254;-89
2021/12/17 14:08:26;;;;;;;11.03;9.70;;;;;;;;;;5005849;28;20205;-90
2021/12/17 14:10:55;;;;;;;10.80;9.70;;;;;;;;;;4998727;28;20215;-91
2021/12/17 14:13:34;;;;;;;12.70;10.43;;;;;;;;;;5006243;28;20215;-95
2021/12/17 14:22:28;;;;;;;11.40;10.00;;;;;;;;;;4918383;28;20287;-89
2021/12/17 14:25:00;;;;;;;11.77;9.80;;;;;;;;;;4980082;28;20220;-91
2021/12/17 14:27:45;;;;;;;11.47;10.27;;;;;;;;;;4989978;28;20207;-89
2021/12/17 14:30:19;;;;;;;11.57;10.27;;;;;;;;;;4997110;28;20258;-90
2021/12/17 14:32:48;;;;;;;12.37;10.90;;;;;;;;;;4995868;28;20214;-89
2021/12/17 14:35:16;;;;;;;12.10;10.87;;;;;;;;;;4992451;28;20246;-89
2021/12/17 14:37:52;;;;;;;13.17;11.27;;;;;;;;;;5001576;28;20257;-92
2021/12/17 14:40:27;;;;;;;13.40;11.60;;;;;;;;;;4999061;28;20248;-90
2021/12/17 14:42:56;;;;;;;13.87;11.33;;;;;;;;;;4996568;28;20230;-92
2021/12/17 14:45:39;;;;;;;12.40;11.10;;;;;;;;;;4997875;28;20238;-90
2021/12/17 14:48:20;;;;;;;13.60;12.20;;;;;;;;;;5000719;28;20207;-93
2021/12/17 15:02:11;;;;;;;13.13;11.73;;;;;;;;;;4983963;28;20211;-90
2021/12/17 15:04:39;;;;;;;13.20;11.80;;;;;;;;;;5003614;28;20262;-90
2021/12/17 15:07:07;;;;;;;16.10;11.67;;;;;;;;;;5000258;28;20757;-92
2021/12/17 15:09:38;;;;;;;13.40;12.00;;;;;;;;;;4996869;28;20261;-89
2021/12/17 15:12:23;;;;;;;13.77;11.93;;;;;;;;;;4999378;28;20298;-89
2021/12/17 15:14:50;;;;;;;13.97;12.53;;;;;;;;;;5000527;28;20265;-93
2021/12/17 15:17:23;;;;;;;13.53;11.43;;;;;;;;;;5002879;28;20214;-91
2021/12/17 15:19:50;;;;;;;14.47;12.93;;;;;;;;;;4991404;28;20235;-92
2021/12/17 15:25:31;;;;;;;12.23;10.93;;;;;;;;;;4992257;28;20250;-92
2021/12/17 15:28:28;;;;;;;11.67;10.30;;;;;;;;;;4994065;28;20262;-91
2021/12/17 15:31:08;;;;;;;14.37;10.97;;;;;;;;;;4996647;28;20203;-92
2021/12/17 15:36:57;;;;;;;14.80;10.70;;;;;;;;;;4950694;28;20213;-90
2021/12/17 15:39:32;;;;;;;13.17;10.63;;;;;;;;;;4995686;28;20267;-90
2021/12/17 15:42:03;;;;;;;13.03;10.93;;;;;;;;;;4994135;28;20203;-91
2021/12/17 15:44:47;;;;;;;11.93;10.73;;;;;;;;;;4993800;28;20310;-90
2021/12/17 15:47:24;;;;;;;12.27;11.07;;;;;;;;;;4996778;28;20203;-90
2021/12/17 15:50:14;;;;;;;12.80;11.47;;;;;;;;;;4994676;28;20207;-90
2021/12/17 15:52:58;;;;;;;11.97;10.73;;;;;;;;;;4993722;28;20214;-90
2021/12/17 15:55:43;;;;;;;11.40;10.17;;;;;;;;;;4996565;28;20231;-90
2021/12/17 15:58:26;;;;;;;12.00;10.70;;;;;;;;;;4999579;28;20290;-91
2021/12/17 16:01:04;;;;;;;11.50;10.30;;;;;;;;;;4987901;28;20218;-88
2021/12/17 16:03:36;;;;;;;12.00;10.80;;;;;;;;;;4986329;28;20688;-90
2021/12/17 16:06:40;;;;;;;12.43;11.20;;;;;;;;;;4980766;28;20247;-90
2021/12/17 16:10:28;;;;;;;13.07;11.67;;;;;;;;;;4913400;29;20211;-94
2021/12/17 16:23:59;;;;;;;12.37;11.00;;;;;;;;;;4996551;28;20254;-90
2021/12/17 16:26:30;;;;;;;15.43;13.83;;;;;;;;;;4998709;28;20207;-87
2021/12/17 16:29:17;;;;;;;14.93;13.10;;;;;;;;;;4995686;28;20293;-89
2021/12/17 16:31:47;;;;;;;13.73;11.80;;;;;;;;;;4998939;28;20214;-88
2021/12/17 16:34:40;;;;;;;19.03;14.53;;;;;;;;;;5008291;28;20242;-91
2021/12/17 16:37:28;;;;;;;;;;;;;;;;;;;;;
2021/12/17 16:42:51;;;;;;;11.83;10.47;;;;;;;;;;4988409;28;20204;-88
2021/12/17 16:50:57;;;;;;;13.07;10.73;;;;;;;;;;4997394;28;20207;-90
2021/12/17 16:53:32;;;;;;;12.40;11.10;;;;;;;;;;4997353;28;20234;-90
2021/12/17 16:56:13;;;;;;;13.27;11.43;;;;;;;;;;4996125;28;20226;-90
2021/12/17 16:58:50;;;;;;;12.27;10.97;;;;;;;;;;4995640;28;20250;-88
2021/12/17 17:01:38;;;;;;;12.10;10.90;;;;;;;;;;4994732;28;20215;-89
2021/12/17 17:52:39;;;;;;;12.30;10.97;;;;;;;;;;5167143;23;20230;-91
2021/12/17 17:58:15;;;;;;;13.23;11.33;;;;;;;;;;5012015;28;20209;-91
2021/12/17 18:00:49;;;;;;;13.03;11.63;;;;;;;;;;5011927;28;20217;-93
2021/12/17 18:03:18;;;;;;;13.70;12.40;;;;;;;;;;5013269;28;20209;-91
2021/12/17 18:06:07;;;;;;;13.43;12.03;;;;;;;;;;5014171;28;20231;-90
2021/12/17 18:08:46;;;;;;;13.40;11.97;;;;;;;;;;5014766;28;20241;-92
2021/12/17 18:11:18;;;;;;;14.47;12.93;;;;;;;;;;5012684;28;20280;-88
2021/12/17 18:13:50;;;;;;;14.27;12.53;;;;;;;;;;5017141;28;20626;-92
2021/12/17 18:16:24;;;;;;;13.87;12.30;;;;;;;;;;5008583;28;20217;-92
2021/12/17 18:25:21;;;;;;;17.47;13.87;;;;;;;;;;4995828;28;20222;-89
2021/12/17 18:28:02;;;;;;;12.73;11.43;;;;;;;;;;4996292;28;20207;-90
2021/12/17 18:33:35;;;;;;;13.07;11.70;;;;;;;;;;4991303;28;20237;-90
2021/12/17 18:36:11;;;;;;;13.53;12.07;;;;;;;;;;5018339;28;20260;-91
2021/12/17 18:47:20;;;;;;;13.77;12.27;;;;;;;;;;4962925;22;20232;-87
2021/12/17 18:50:15;;;;;;;;;;;;;;;;;;;;;
2021/12/17 18:52:53;;;;;;;13.47;12.07;;;;;;;;;;4952568;29;20281;-90
2021/12/17 18:55:30;;;;;;;13.70;12.30;;;;;;;;;;4952870;28;20220;-87
2021/12/17 19:01:01;;;;;;;13.47;12.10;;;;;;;;;;4951866;29;20201;-86
2021/12/17 19:10:00;;;;;;;13.03;11.77;;;;;;;;;;4951831;29;20284;-88
2021/12/17 19:36:49;;;;;;;14.53;12.93;;;;;;;;;;4981243;28;20207;-89
2021/12/17 19:39:35;;;;;;;13.90;12.50;;;;;;;;;;4971465;28;20231;-87
2021/12/17 19:56:54;;;;;;;17.07;15.27;;;;;;;;;;4960164;22;20315;-88
2021/12/17 19:59:22;;;;;;;14.47;12.97;;;;;;;;;;4956096;28;20205;-89
2021/12/17 20:01:51;;;;;;;14.53;13.03;;;;;;;;;;4957546;29;20201;-88
2021/12/17 20:04:18;;;;;;;14.93;13.43;;;;;;;;;;4954569;29;20252;-88
2021/12/17 20:06:47;;;;;;;16.57;14.03;;;;;;;;;;4953237;29;20230;-86
2021/12/17 20:12:11;;;;;;;16.20;13.70;;;;;;;;;;4951987;29;20272;-88
2021/12/17 20:14:42;;;;;;;17.83;14.63;;;;;;;;;;4947152;28;20208;-87
2021/12/17 20:17:11;;;;;;;16.00;14.27;;;;;;;;;;4950559;29;20284;-86
2021/12/17 20:19:38;;;;;;;16.53;14.40;;;;;;;;;;4961555;29;20239;-87
2021/12/17 20:22:06;;;;;;;16.70;13.77;;;;;;;;;;4949679;29;20204;-88
2021/12/17 20:24:34;;;;;;;17.40;14.97;;;;;;;;;;4944800;29;20217;-87
2021/12/17 20:27:03;;;;;;;16.23;14.27;;;;;;;;;;4948911;29;20256;-88
2021/12/17 20:29:33;;;;;;;17.87;14.37;;;;;;;;;;4951707;29;20220;-89
2021/12/17 20:32:01;;;;;;;17.17;14.90;;;;;;;;;;4946279;29;20231;-86
2021/12/17 20:34:29;;;;;;;17.93;15.10;;;;;;;;;;4953322;28;20240;-87
2021/12/17 20:39:47;;;;;;;16.57;14.47;;;;;;;;;;4935907;29;20200;-88
2021/12/17 20:42:21;;;;;;;18.53;15.43;;;;;;;;;;4948313;28;20196;-87
2021/12/17 20:44:50;;;;;;;23.27;20.47;;;;;;;;;;4956322;28;20311;-89
2021/12/17 20:47:17;;;;;;;17.03;14.77;;;;;;;;;;4954992;29;20230;-88
2021/12/17 20:49:44;;;;;;;21.07;17.30;;;;;;;;;;4955274;28;20256;-87
2021/12/17 20:52:12;;;;;;;16.60;14.53;;;;;;;;;;4956085;29;20256;-88
2021/12/17 20:54:39;;;;;;;18.57;16.00;;;;;;;;;;4956779;29;20232;-88
2021/12/17 20:57:06;;;;;;;18.60;16.27;;;;;;;;;;4956775;29;20208;-88
2021/12/17 20:59:34;;;;;;;17.90;14.57;;;;;;;;;;4956482;29;20208;-87
2021/12/17 21:02:02;;;;;;;16.00;14.20;;;;;;;;;;4956268;29;20276;-87
2021/12/17 21:04:30;;;;;;;17.47;15.33;;;;;;;;;;4960687;29;20252;-87
2021/12/17 21:06:57;;;;;;;17.80;15.13;;;;;;;;;;4958506;29;20200;-89
2021/12/17 21:09:24;;;;;;;18.20;15.60;;;;;;;;;;4959371;29;20208;-88
2021/12/17 21:11:57;;;;;;;18.70;16.00;;;;;;;;;;4958952;29;20664;-88
2021/12/17 21:14:25;;;;;;;18.33;14.53;;;;;;;;;;4961121;29;20248;-89
2021/12/17 21:16:53;;;;;;;18.50;15.90;;;;;;;;;;4963287;29;20215;-88
2021/12/17 21:19:23;;;;;;;17.80;14.90;;;;;;;;;;4959621;29;20212;-87
2021/12/17 21:21:51;;;;;;;17.97;15.60;;;;;;;;;;4956745;29;20216;-87
2021/12/17 21:24:19;;;;;;;17.40;15.17;;;;;;;;;;4958520;29;20243;-87
2021/12/17 21:26:48;;;;;;;17.77;15.40;;;;;;;;;;4958859;29;20311;-87
2021/12/17 21:29:16;;;;;;;19.23;15.47;;;;;;;;;;4959270;29;20336;-87
2021/12/17 21:31:44;;;;;;;18.10;15.03;;;;;;;;;;4955785;29;20210;-87
2021/12/17 21:34:13;;;;;;;17.57;14.80;;;;;;;;;;4956840;29;20205;-87
2021/12/17 21:36:41;;;;;;;17.83;14.90;;;;;;;;;;4959166;28;20228;-87
2021/12/17 21:39:10;;;;;;;19.53;15.63;;;;;;;;;;4959680;29;20268;-88
2021/12/17 21:41:37;;;;;;;18.77;15.53;;;;;;;;;;4961594;29;20220;-88
2021/12/17 21:44:05;;;;;;;17.73;15.83;;;;;;;;;;4960801;29;20224;-89
2021/12/17 21:46:33;;;;;;;18.17;16.03;;;;;;;;;;4960396;28;20236;-89
2021/12/17 21:49:00;;;;;;;19.37;16.97;;;;;;;;;;4960264;29;20219;-89
2021/12/17 21:51:28;;;;;;;21.33;15.67;;;;;;;;;;4963063;28;20204;-89
2021/12/17 21:53:56;;;;;;;18.23;14.43;;;;;;;;;;4980791;28;20250;-89
2021/12/17 21:56:24;;;;;;;18.63;16.27;;;;;;;;;;4973826;28;20302;-89
2021/12/17 21:58:51;;;;;;;20.53;15.27;;;;;;;;;;4971185;29;20220;-89
2021/12/17 22:01:19;;;;;;;18.03;15.07;;;;;;;;;;4958231;29;20208;-88
2021/12/17 22:03:46;;;;;;;18.70;15.13;;;;;;;;;;4958895;29;20219;-89
2021/12/17 22:06:14;;;;;;;18.07;14.77;;;;;;;;;;4958780;28;20251;-89
2021/12/17 22:08:41;;;;;;;19.97;16.33;;;;;;;;;;4956171;29;20209;-89
2021/12/17 22:11:11;;;;;;;19.43;16.30;;;;;;;;;;4949585;29;20207;-89
2021/12/17 22:13:39;;;;;;;18.40;16.07;;;;;;;;;;4959463;29;20262;-90
2021/12/17 22:16:06;;;;;;;17.97;15.20;;;;;;;;;;4956990;29;20295;-87
2021/12/17 22:18:42;;;;;;;18.90;15.63;;;;;;;;;;4953006;29;20212;-88
2021/12/17 22:21:13;;;;;;;18.70;16.00;;;;;;;;;;4955972;29;20240;-88
2021/12/17 22:23:40;;;;;;;18.07;14.67;;;;;;;;;;4957586;28;20264;-90
2021/12/17 22:26:08;;;;;;;19.37;16.17;;;;;;;;;;4956160;28;20271;-88
2021/12/17 22:28:36;;;;;;;19.30;15.50;;;;;;;;;;4955890;29;20209;-89
2021/12/17 22:31:04;;;;;;;19.87;16.17;;;;;;;;;;4957016;29;20209;-89
2021/12/17 22:33:31;;;;;;;20.90;16.30;;;;;;;;;;4956338;29;20214;-89
2021/12/17 22:35:59;;;;;;;20.93;16.47;;;;;;;;;;4955957;28;20260;-89
2021/12/17 22:38:26;;;;;;;19.13;15.20;;;;;;;;;;4955987;29;20260;-88
2021/12/17 22:41:06;;;;;;;20.43;15.83;;;;;;;;;;4955090;29;20228;-88
2021/12/17 22:43:34;;;;;;;18.70;15.10;;;;;;;;;;4957075;29;20224;-89
2021/12/17 22:46:03;;;;;;;19.23;15.83;;;;;;;;;;4956352;28;20318;-88
2021/12/17 22:48:30;;;;;;;18.00;15.00;;;;;;;;;;4955087;29;20205;-88
2021/12/17 22:50:58;;;;;;;18.27;14.90;;;;;;;;;;4954624;29;20264;-88
2021/12/17 22:53:26;;;;;;;19.93;15.77;;;;;;;;;;4956070;29;20304;-88
2021/12/17 22:55:54;;;;;;;20.83;15.80;;;;;;;;;;4954352;28;20256;-88
2021/12/17 22:58:22;;;;;;;19.33;15.23;;;;;;;;;;4954546;29;20213;-88
2021/12/17 23:00:55;;;;;;;20.23;15.53;;;;;;;;;;4954455;29;20488;-88
2021/12/17 23:03:24;;;;;;;19.13;15.73;;;;;;;;;;4950056;29;20224;-88
2021/12/17 23:05:52;;;;;;;18.00;14.83;;;;;;;;;;4955950;29;20233;-88
2021/12/17 23:08:30;;;;;;;19.63;15.20;;;;;;;;;;4955032;29;20275;-89
2021/12/17 23:10:58;;;;;;;18.80;15.07;;;;;;;;;;4949857;29;20236;-89
2021/12/17 23:13:26;;;;;;;19.03;14.73;;;;;;;;;;4954660;28;20303;-88
2021/12/17 23:15:54;;;;;;;18.10;15.10;;;;;;;;;;4959273;28;20224;-89
2021/12/17 23:18:21;;;;;;;18.77;15.10;;;;;;;;;;4957108;29;20205;-88
2021/12/17 23:20:50;;;;;;;18.47;15.17;;;;;;;;;;4958419;29;20208;-88
2021/12/17 23:23:17;;;;;;;19.40;16.07;;;;;;;;;;4957010;29;20272;-89
2021/12/17 23:25:44;;;;;;;19.90;15.60;;;;;;;;;;4956955;29;20295;-88
2021/12/17 23:28:12;;;;;;;19.03;15.67;;;;;;;;;;4956774;28;20212;-88
2021/12/17 23:30:39;;;;;;;20.17;15.93;;;;;;;;;;4956202;29;20303;-88
2021/12/17 23:36:11;;;;;;;20.10;15.53;;;;;;;;;;4955111;28;20294;-88
2021/12/17 23:38:38;;;;;;;17.93;14.70;;;;;;;;;;4956502;29;20280;-88
2021/12/17 23:41:06;;;;;;;19.37;15.60;;;;;;;;;;4954890;29;20212;-88
2021/12/17 23:43:33;;;;;;;18.87;14.97;;;;;;;;;;4955747;29;20272;-88
2021/12/17 23:46:02;;;;;;;19.60;15.63;;;;;;;;;;4956562;29;20267;-87
2021/12/17 23:48:30;;;;;;;19.67;15.13;;;;;;;;;;4955956;29;20205;-87
2021/12/17 23:50:57;;;;;;;18.67;15.50;;;;;;;;;;4956607;29;20212;-88
2021/12/17 23:53:26;;;;;;;19.37;14.97;;;;;;;;;;4956571;29;20275;-89
2021/12/17 23:55:53;;;;;;;28.40;20.33;;;;;;;;;;4956582;28;20263;-89
2021/12/17 23:58:20;;;;;;;19.70;16.03;;;;;;;;;;4959226;29;20272;-89
